createdAt,value
2022-10-06T00:00:40.325Z,3.1
2022-10-06T00:04:40.763Z,3.28
2022-10-06T00:08:40.441Z,3.3
2022-10-06T00:12:40.625Z,2.85
2022-10-06T00:16:40.409Z,3.3
2022-10-06T00:20:40.538Z,3.08
2022-10-06T00:24:40.708Z,3.58
2022-10-06T00:28:40.421Z,2.7
2022-10-06T00:32:40.568Z,3.15
2022-10-06T00:36:40.560Z,2.87
2022-10-06T00:40:39.426Z,2.85
2022-10-06T00:44:41.165Z,3.03
2022-10-06T00:48:40.516Z,2.47
2022-10-06T00:52:40.533Z,2.53
2022-10-06T00:56:40.490Z,2.78
2022-10-06T01:00:40.420Z,3.3
2022-10-06T01:04:40.689Z,2.87
2022-10-06T01:08:41.006Z,2.85
2022-10-06T01:12:40.724Z,3.97
2022-10-06T01:16:40.757Z,2.92
2022-10-06T01:20:40.518Z,3
2022-10-06T01:24:40.461Z,3.17
2022-10-06T01:28:40.780Z,3.33
2022-10-06T01:32:40.494Z,3.15
2022-10-06T01:36:40.509Z,2.85
2022-10-06T01:40:40.543Z,2.95
2022-10-06T01:44:40.331Z,4.2
2022-10-06T01:48:40.450Z,3.3
2022-10-06T01:52:40.564Z,2.8
2022-10-06T01:56:40.764Z,2.75
2022-10-06T02:00:39.557Z,3.17
2022-10-06T02:04:40.529Z,3.3
2022-10-06T02:08:40.528Z,2.78
2022-10-06T02:12:40.622Z,2.95
2022-10-06T02:16:39.657Z,2.72
2022-10-06T02:20:40.682Z,2.7
2022-10-06T02:24:40.549Z,3
2022-10-06T02:28:40.656Z,3.4
2022-10-06T02:32:40.460Z,3.5
2022-10-06T02:36:40.279Z,2.8
2022-10-06T02:40:40.506Z,3.22
2022-10-06T02:44:40.552Z,3.2
2022-10-06T02:48:40.813Z,3.05
2022-10-06T02:52:40.497Z,2.83
2022-10-06T02:56:40.516Z,3
2022-10-06T03:00:41.190Z,2.58
2022-10-06T03:04:40.866Z,2.4
2022-10-06T03:08:40.495Z,2.7
2022-10-06T03:12:40.505Z,2.85
2022-10-06T03:16:39.429Z,2.4
2022-10-06T03:20:40.472Z,2.45
2022-10-06T03:24:40.515Z,2.25
2022-10-06T03:28:40.399Z,2.95
2022-10-06T03:32:39.479Z,2.8
2022-10-06T03:36:41.131Z,2.95
2022-10-06T03:40:40.836Z,2.67
2022-10-06T03:44:40.628Z,3.05
2022-10-06T03:48:40.533Z,2.8
2022-10-06T03:52:40.458Z,2.92
2022-10-06T03:56:40.494Z,2.95
2022-10-06T04:00:40.975Z,2.87
2022-10-06T04:04:40.254Z,2.17
2022-10-06T04:08:40.662Z,3
2022-10-06T04:12:40.499Z,2.8
2022-10-06T04:16:40.774Z,2.95
2022-10-06T04:20:40.495Z,2.87
2022-10-06T04:24:40.623Z,2.85
2022-10-06T04:28:40.641Z,2.7
2022-10-06T04:32:40.607Z,2.53
2022-10-06T04:36:40.328Z,4.55
2022-10-06T04:40:40.507Z,2.47
2022-10-06T04:44:40.894Z,2.75
2022-10-06T04:48:40.606Z,2.58
2022-10-06T04:52:39.663Z,2.3
2022-10-06T04:56:40.634Z,2.67
2022-10-06T05:00:41.210Z,2.25
2022-10-06T05:04:40.520Z,2.2
2022-10-06T05:08:40.445Z,2
2022-10-06T05:12:40.400Z,2.92
2022-10-06T05:16:40.622Z,2.7
2022-10-06T05:20:40.566Z,2.62
2022-10-06T05:24:40.899Z,2.03
2022-10-06T05:28:40.674Z,2.95
2022-10-06T05:32:41.133Z,2.37
2022-10-06T05:36:40.885Z,1.8
2022-10-06T05:40:40.644Z,2.62
2022-10-06T05:44:40.511Z,2.17
2022-10-06T05:48:40.347Z,1.92
2022-10-06T05:52:41.134Z,2.25
2022-10-06T05:56:41.095Z,2.6
2022-10-06T06:00:40.552Z,1.77
2022-10-06T06:04:40.770Z,1.7
2022-10-06T06:08:40.484Z,2.12
2022-10-06T06:12:40.766Z,2.1
2022-10-06T06:16:40.869Z,1.37
2022-10-06T06:20:40.485Z,1.2
2022-10-06T06:24:40.744Z,1.4
2022-10-06T06:28:40.908Z,1
2022-10-06T06:32:39.879Z,1.1
2022-10-06T06:36:40.554Z,1.2
2022-10-06T06:40:40.611Z,0.85
2022-10-06T06:44:40.441Z,0.7
2022-10-06T06:48:40.651Z,1
2022-10-06T06:52:40.637Z,1.55
2022-10-06T06:56:40.533Z,0.57
2022-10-06T07:00:40.571Z,1.2
2022-10-06T07:04:40.452Z,0.8
2022-10-06T07:08:40.487Z,1
2022-10-06T07:12:40.326Z,0.9
2022-10-06T07:16:40.908Z,1.1
2022-10-06T07:20:40.469Z,0.93
2022-10-06T07:24:40.442Z,0.75
2022-10-06T07:28:40.581Z,0.6
2022-10-06T07:32:40.534Z,1.1
2022-10-06T07:36:40.456Z,0.62
2022-10-06T07:40:46.323Z,0.55
2022-10-06T07:44:40.685Z,0.57
2022-10-06T07:48:40.533Z,0.3
2022-10-06T07:52:40.521Z,0.5
2022-10-06T07:56:40.499Z,0.47
2022-10-06T08:00:40.574Z,0.88
2022-10-06T08:04:40.539Z,0.4
2022-10-06T08:08:40.531Z,0.47
2022-10-06T08:12:40.556Z,0.4
2022-10-06T08:16:40.700Z,0.6
2022-10-06T08:20:40.623Z,0.6
2022-10-06T08:25:04.300Z,0.95
2022-10-06T08:28:40.675Z,0.6
2022-10-06T08:32:41.088Z,0.5
2022-10-06T08:36:44.955Z,0.8
2022-10-06T08:40:40.775Z,0.47
2022-10-06T08:44:41.229Z,0.73
2022-10-06T08:48:39.896Z,0.7
2022-10-06T08:52:40.637Z,0.62
2022-10-06T08:56:41.006Z,0.6
2022-10-06T09:00:40.830Z,0.73
2022-10-06T09:04:40.874Z,0.68
2022-10-06T09:08:40.461Z,0.7
2022-10-06T09:12:40.567Z,0.88
2022-10-06T09:16:40.380Z,0.75
2022-10-06T09:20:40.800Z,0.7
2022-10-06T09:24:46.216Z,0.8
2022-10-06T09:28:40.525Z,0.82
2022-10-06T09:32:40.886Z,0.6
2022-10-06T09:36:40.561Z,0.6
2022-10-06T09:40:40.513Z,0.8
2022-10-06T09:44:40.480Z,1.08
2022-10-06T09:48:40.507Z,1.08
2022-10-06T09:52:40.871Z,0.57
2022-10-06T09:56:41.123Z,0.8
2022-10-06T10:00:40.648Z,1
2022-10-06T10:04:40.998Z,0.93
2022-10-06T10:08:40.860Z,0.73
2022-10-06T10:12:40.458Z,0.8
2022-10-06T10:16:39.872Z,0.7
2022-10-06T10:20:40.884Z,0.73
2022-10-06T10:24:40.538Z,0.65
2022-10-06T10:28:40.598Z,1.1
2022-10-06T10:32:40.467Z,0.98
2022-10-06T10:36:40.944Z,0.8
2022-10-06T10:40:40.609Z,0.7
2022-10-06T10:44:40.457Z,0.65
2022-10-06T10:48:40.321Z,0.88
2022-10-06T10:52:40.540Z,1.05
2022-10-06T10:56:40.412Z,0.9
2022-10-06T11:00:40.775Z,1.37
2022-10-06T11:04:40.503Z,1
2022-10-06T11:08:40.507Z,1.02
2022-10-06T11:12:40.466Z,0.62
2022-10-06T11:16:40.320Z,0.9
2022-10-06T11:20:40.518Z,0.7
2022-10-06T11:24:40.529Z,0.7
2022-10-06T11:28:40.611Z,0.88
2022-10-06T11:32:39.750Z,1.25
2022-10-06T11:36:40.579Z,1.02
2022-10-06T11:40:40.979Z,1
2022-10-06T11:44:40.444Z,0.75
2022-10-06T11:48:40.387Z,0.95
2022-10-06T11:52:41.230Z,0.62
2022-10-06T11:56:40.634Z,1.12
2022-10-06T12:00:40.574Z,0.62
2022-10-06T12:04:39.498Z,0.77
2022-10-06T12:08:40.981Z,0.9
2022-10-06T12:12:40.412Z,0.9
2022-10-06T12:20:40.535Z,0.8
2022-10-06T12:24:40.364Z,0.82
2022-10-06T12:28:41.017Z,0.98
2022-10-06T12:32:40.693Z,0.9
2022-10-06T12:36:44.869Z,1.17
2022-10-06T12:40:40.666Z,1.08
2022-10-06T12:44:40.609Z,0.88
2022-10-06T12:48:40.651Z,0.77
2022-10-06T12:52:41.263Z,0.9
2022-10-06T12:56:40.400Z,0.5
2022-10-06T13:00:40.624Z,0.9
2022-10-06T13:04:40.696Z,0.6
2022-10-06T13:08:40.442Z,1.05
2022-10-06T13:12:40.850Z,1.05
2022-10-06T13:16:41.006Z,0.9
2022-10-06T13:20:40.488Z,0.7
2022-10-06T13:24:40.462Z,0.57
2022-10-06T13:28:40.549Z,0.9
2022-10-06T13:32:40.529Z,1.75
2022-10-06T13:36:40.475Z,0.77
2022-10-06T13:40:44.599Z,1
2022-10-06T13:44:40.603Z,0.85
2022-10-06T13:48:40.547Z,0.93
2022-10-06T13:52:40.364Z,0.9
2022-10-06T13:56:40.501Z,0.8
2022-10-06T14:00:40.546Z,0.7
2022-10-06T14:04:40.381Z,0.62
2022-10-06T14:08:40.480Z,0.82
2022-10-06T14:12:40.624Z,1.3
2022-10-06T14:16:40.766Z,1.65
2022-10-06T14:20:54.545Z,0.62
2022-10-06T14:24:41.128Z,1.33
2022-10-06T14:28:40.970Z,1.73
2022-10-06T14:32:40.552Z,1.27
2022-10-06T14:36:40.844Z,1.08
2022-10-06T14:40:40.564Z,1.3
2022-10-06T14:44:40.466Z,0.9
2022-10-06T14:48:40.649Z,0.9
2022-10-06T14:52:40.448Z,1.3
2022-10-06T14:56:40.591Z,0.85
2022-10-06T15:00:40.648Z,0.95
2022-10-06T15:04:40.650Z,0.77
2022-10-06T15:08:40.457Z,1.05
2022-10-06T15:12:40.520Z,0.65
2022-10-06T15:16:40.316Z,1.45
2022-10-06T15:20:40.520Z,0.77
2022-10-06T15:24:40.525Z,0.88
2022-10-06T15:28:40.903Z,0.95
2022-10-06T15:32:40.245Z,0.93
2022-10-06T15:36:40.647Z,1.27
2022-10-06T15:40:40.611Z,1.05
2022-10-06T15:44:39.586Z,0.98
2022-10-06T15:48:40.520Z,1.37
2022-10-06T15:52:40.538Z,1.3
2022-10-06T15:56:40.624Z,1
2022-10-06T16:00:40.859Z,1.65
2022-10-06T16:04:40.599Z,0.77
2022-10-06T16:08:40.627Z,1.08
2022-10-06T16:12:40.561Z,1.1
2022-10-06T16:16:43.687Z,1.1
2022-10-06T16:20:40.668Z,1.92
2022-10-06T16:24:39.678Z,1.45
2022-10-06T16:28:40.645Z,1.75
2022-10-06T16:32:40.897Z,1.25
2022-10-06T16:36:40.377Z,1.95
2022-10-06T16:40:40.558Z,1.4
2022-10-06T16:44:40.546Z,2.25
2022-10-06T16:48:40.740Z,1.8
2022-10-06T16:52:40.311Z,1.45
2022-10-06T16:56:40.627Z,2.92
2022-10-06T17:00:40.735Z,4.28
2022-10-06T17:04:40.472Z,3.8
2022-10-06T17:08:41.194Z,3.62
2022-10-06T17:12:40.959Z,3.05
2022-10-06T17:16:40.334Z,2.87
2022-10-06T17:20:40.906Z,3.42
2022-10-06T17:24:40.432Z,2.75
2022-10-06T17:28:40.630Z,3.45
2022-10-06T17:32:41.038Z,3.12
2022-10-06T17:36:41.141Z,3.42
2022-10-06T17:40:40.553Z,3.8
2022-10-06T17:44:40.462Z,3.9
2022-10-06T17:48:40.772Z,3.17
2022-10-06T17:52:41.497Z,3.4
2022-10-06T17:56:40.847Z,2.85
2022-10-06T18:00:40.735Z,2.83
2022-10-06T18:04:40.547Z,2.9
2022-10-06T18:08:40.468Z,3.37
2022-10-06T18:12:40.798Z,3.65
2022-10-06T18:16:40.410Z,3.35
2022-10-06T18:20:40.564Z,4.1
2022-10-06T18:24:40.497Z,5.22
2022-10-06T18:28:40.501Z,4.35
2022-10-06T18:34:20.990Z,4.78
2022-10-06T18:36:40.953Z,2.72
2022-10-06T18:40:40.565Z,4.43
2022-10-06T18:44:39.463Z,3.1
2022-10-06T18:48:40.511Z,3.22
2022-10-06T18:52:40.599Z,3.47
2022-10-06T18:56:39.313Z,3.22
2022-10-06T19:00:40.812Z,3.12
2022-10-06T19:04:41.007Z,4.18
2022-10-06T19:08:40.429Z,6
2022-10-06T19:12:40.778Z,5.62
2022-10-06T19:16:40.542Z,4.55
2022-10-06T19:20:40.913Z,4.28
2022-10-06T19:24:40.349Z,4.65
2022-10-06T19:28:40.796Z,4.93
2022-10-06T19:32:40.783Z,4.55
2022-10-06T19:36:40.540Z,7.2
2022-10-06T19:40:40.480Z,9.25
2022-10-06T19:44:43.147Z,7.32
2022-10-06T19:48:40.659Z,7.22
2022-10-06T19:52:40.816Z,8.23
2022-10-06T19:56:40.516Z,7.25
2022-10-06T20:00:41.147Z,7.7
2022-10-06T20:04:40.623Z,7.43
2022-10-06T20:08:40.529Z,7.35
2022-10-06T20:12:40.483Z,6.35
2022-10-06T20:16:40.611Z,6.05
2022-10-06T20:20:40.606Z,6.7
2022-10-06T20:24:40.274Z,6.22
2022-10-06T20:28:40.894Z,5.82
2022-10-06T20:32:40.463Z,5.8
2022-10-06T20:36:40.280Z,6.7
2022-10-06T20:40:40.557Z,5.57
2022-10-06T20:44:40.462Z,6
2022-10-06T20:48:40.513Z,6.77
2022-10-06T20:52:40.717Z,6.12
2022-10-06T20:56:40.977Z,6.55
2022-10-06T21:00:40.694Z,6.97
2022-10-06T21:04:40.694Z,6.7
2022-10-06T21:08:40.860Z,6.17
2022-10-06T21:12:40.606Z,7.67
2022-10-06T21:16:41.066Z,7.6
2022-10-06T21:20:44.456Z,6.47
2022-10-06T21:24:40.951Z,6.18
2022-10-06T21:28:40.560Z,6.65
2022-10-06T21:32:41.051Z,7.22
2022-10-06T21:36:40.566Z,6.87
2022-10-06T21:40:40.663Z,7.18
2022-10-06T21:44:40.648Z,6.95
2022-10-06T21:48:40.880Z,8.2
2022-10-06T21:52:40.545Z,6.78
2022-10-06T21:56:40.326Z,6.75
2022-10-06T22:00:40.511Z,6.87
2022-10-06T22:04:40.534Z,7.8
2022-10-06T22:08:40.560Z,7.3
2022-10-06T22:12:40.737Z,7
2022-10-06T22:16:41.134Z,6.85
2022-10-06T22:20:40.854Z,6.33
2022-10-06T22:24:40.491Z,5.9
2022-10-06T22:28:40.433Z,7.93
2022-10-06T22:32:40.504Z,6.4
2022-10-06T22:36:40.581Z,6.73
2022-10-06T22:40:40.666Z,6.43
2022-10-06T22:44:40.587Z,5.83
2022-10-06T22:48:41.020Z,6.63
2022-10-06T22:52:40.568Z,6.57
2022-10-06T22:56:40.522Z,5.8
2022-10-06T23:00:40.746Z,5.8
2022-10-06T23:04:40.748Z,5.97
2022-10-06T23:08:40.358Z,6.77
2022-10-06T23:12:39.933Z,6.73
2022-10-06T23:16:41.104Z,6.1
2022-10-06T23:20:40.638Z,6.97
2022-10-06T23:24:40.533Z,7
2022-10-06T23:28:40.661Z,6.53
2022-10-06T23:32:40.667Z,6.97
2022-10-06T23:36:40.654Z,6.03
2022-10-06T23:40:40.477Z,6.53
2022-10-06T23:44:40.550Z,5.97
2022-10-06T23:48:40.617Z,6.6
2022-10-06T23:52:40.075Z,5.57
2022-10-06T23:56:40.838Z,5.8
